Time;durP1;ratioP1;P1;durP2;ratioP2;P2;SDS_P1;SDS_P2;PMS_P1;PMS_P2;Temp;Humidity;BMP_temperature;BMP_pressure;BME280_temperature;BME280_humidity;BME280_pressure;Samples;Min_cycle;Max_cycle;Signal;HPM_P1;HPM_P2
2023/09/26 00:01:02;;;;;;;10.35;3.90;;;15.00;99.90;;;;;;5064780;28;20031;-79
2023/09/26 00:03:28;;;;;;;5.63;3.53;;;15.00;99.90;;;;;;5065673;28;20567;-80
2023/09/26 00:05:55;;;;;;;6.32;2.97;;;15.00;99.90;;;;;;5065423;28;20056;-80
2023/09/26 00:08:21;;;;;;;3.40;2.05;;;15.00;99.90;;;;;;5055449;28;20040;-79
2023/09/26 00:10:49;;;;;;;7.18;3.38;;;15.00;99.90;;;;;;5062764;28;20596;-80
2023/09/26 00:13:15;;;;;;;6.57;3.55;;;15.00;99.90;;;;;;5062206;28;20439;-80
2023/09/26 00:15:42;;;;;;;7.10;3.38;;;15.00;99.90;;;;;;5063598;28;20024;-80
2023/09/26 00:18:08;;;;;;;6.30;2.22;;;15.10;99.90;;;;;;5062291;28;20115;-80
2023/09/26 00:20:38;;;;;;;4.45;2.67;;;15.00;99.90;;;;;;5062501;28;20028;-80
2023/09/26 00:23:06;;;;;;;5.72;2.50;;;15.00;99.90;;;;;;5063591;28;20036;-80
2023/09/26 00:25:32;;;;;;;5.47;2.47;;;15.00;99.90;;;;;;5062006;28;20075;-80
2023/09/26 00:27:58;;;;;;;7.72;2.85;;;14.90;99.90;;;;;;5063857;28;20047;-80
2023/09/26 00:30:28;;;;;;;12.35;3.17;;;14.90;99.90;;;;;;5064549;28;20040;-80
2023/09/26 00:32:53;;;;;;;4.53;3.05;;;14.80;99.90;;;;;;5057344;28;20029;-80
2023/09/26 00:35:19;;;;;;;6.15;2.83;;;14.80;99.90;;;;;;5064881;28;20074;-80
2023/09/26 00:37:49;;;;;;;3.80;2.70;;;14.80;99.90;;;;;;5064339;28;20043;-80
2023/09/26 00:40:19;;;;;;;7.32;2.10;;;14.70;99.90;;;;;;5057573;28;20039;-80
2023/09/26 00:42:45;;;;;;;3.22;2.17;;;14.70;99.90;;;;;;5065121;28;20028;-80
2023/09/26 00:45:12;;;;;;;3.38;2.38;;;14.60;99.90;;;;;;5058809;28;20388;-80
2023/09/26 00:47:41;;;;;;;4.65;2.42;;;14.50;99.90;;;;;;5066838;28;20481;-80
2023/09/26 00:50:11;;;;;;;2.75;1.88;;;14.40;99.90;;;;;;5058946;28;20123;-80
2023/09/26 00:52:42;;;;;;;4.82;1.83;;;14.40;99.90;;;;;;5066619;28;20032;-79
2023/09/26 00:55:09;;;;;;;4.53;2.30;;;14.30;99.90;;;;;;5057715;28;20052;-80
2023/09/26 00:57:37;;;;;;;3.97;2.55;;;14.10;99.90;;;;;;5064546;28;20324;-80
2023/09/26 01:00:04;;;;;;;3.13;2.42;;;14.00;99.90;;;;;;5062408;28;20083;-80
2023/09/26 01:02:32;;;;;;;3.65;3.30;;;13.90;99.90;;;;;;5062983;28;20033;-80
2023/09/26 01:04:57;;;;;;;4.88;2.42;;;13.80;99.90;;;;;;5061783;28;20088;-80
2023/09/26 01:07:24;;;;;;;6.68;2.97;;;13.70;99.90;;;;;;5060520;28;20032;-79
2023/09/26 01:09:49;;;;;;;3.95;2.80;;;13.60;99.90;;;;;;5061323;28;20028;-80
2023/09/26 01:12:16;;;;;;;3.35;2.40;;;13.50;99.90;;;;;;5062381;28;20384;-80
2023/09/26 01:14:42;;;;;;;4.50;2.45;;;13.40;99.90;;;;;;5062694;28;20638;-79
2023/09/26 01:17:08;;;;;;;6.95;2.58;;;13.30;99.90;;;;;;5064076;28;20087;-79
2023/09/26 01:19:34;;;;;;;4.10;3.03;;;13.20;99.90;;;;;;5064349;28;20077;-79
2023/09/26 01:22:00;;;;;;;6.80;3.03;;;13.10;99.90;;;;;;5065829;28;20020;-79
2023/09/26 01:24:26;;;;;;;3.58;2.80;;;13.00;99.90;;;;;;5064881;28;20532;-80
2023/09/26 01:26:51;;;;;;;8.07;2.92;;;13.00;99.90;;;;;;5063891;28;20036;-79
2023/09/26 01:29:17;;;;;;;8.65;2.75;;;12.90;99.90;;;;;;5064647;28;20049;-80
2023/09/26 01:31:43;;;;;;;5.35;2.95;;;12.80;99.90;;;;;;5063367;28;20111;-80
2023/09/26 01:34:08;;;;;;;3.92;2.83;;;12.70;99.90;;;;;;5064194;28;20144;-79
2023/09/26 01:36:34;;;;;;;5.43;3.08;;;12.60;99.90;;;;;;5064119;28;20044;-80
2023/09/26 01:38:59;;;;;;;3.47;2.78;;;12.60;99.90;;;;;;5063106;28;20020;-80
2023/09/26 01:41:26;;;;;;;5.78;3.30;;;12.50;99.90;;;;;;5064143;28;20029;-79
2023/09/26 01:43:52;;;;;;;2.90;2.63;;;12.50;99.90;;;;;;5062238;28;20119;-80
2023/09/26 01:46:20;;;;;;;7.28;2.92;;;12.40;99.90;;;;;;5060966;28;20124;-79
2023/09/26 01:48:46;;;;;;;7.55;3.20;;;12.40;99.90;;;;;;5063190;28;20539;-80
2023/09/26 01:51:13;;;;;;;3.10;2.80;;;12.30;99.90;;;;;;5062751;28;20029;-80
2023/09/26 01:53:39;;;;;;;5.93;3.40;;;12.30;99.90;;;;;;5061533;28;20240;-79
2023/09/26 01:56:04;;;;;;;3.78;2.72;;;12.30;99.90;;;;;;5063787;28;20044;-79
2023/09/26 01:58:31;;;;;;;4.53;2.50;;;12.20;99.90;;;;;;5062942;28;20024;-80
2023/09/26 02:00:57;;;;;;;4.13;2.72;;;12.20;99.90;;;;;;5076225;28;20025;-79
2023/09/26 02:03:22;;;;;;;5.55;2.45;;;12.20;99.90;;;;;;5064234;28;20358;-79
2023/09/26 02:05:48;;;;;;;6.97;3.35;;;12.20;99.90;;;;;;5062580;28;20031;-79
2023/09/26 02:08:16;;;;;;;4.80;3.08;;;12.20;99.90;;;;;;5064184;28;20025;-79
2023/09/26 02:10:42;;;;;;;2.85;2.63;;;12.20;99.90;;;;;;5062962;28;20186;-79
2023/09/26 02:13:08;;;;;;;2.53;2.33;;;12.20;99.90;;;;;;5065092;28;20517;-79
2023/09/26 02:15:35;;;;;;;3.17;2.50;;;12.20;99.90;;;;;;5064898;28;20024;-79
2023/09/26 02:18:01;;;;;;;3.22;2.47;;;12.20;99.90;;;;;;5064416;28;20044;-80
2023/09/26 02:20:26;;;;;;;6.43;3.15;;;12.30;99.90;;;;;;5064762;28;20481;-79
2023/09/26 02:22:52;;;;;;;6.40;3.22;;;12.20;99.90;;;;;;5060288;28;20108;-80
2023/09/26 02:25:19;;;;;;;5.97;3.17;;;12.10;99.90;;;;;;5062254;28;20469;-79
2023/09/26 02:27:46;;;;;;;3.75;3.15;;;12.10;99.90;;;;;;5059738;28;20051;-80
2023/09/26 02:30:14;;;;;;;8.20;3.05;;;12.00;99.90;;;;;;5061887;28;20037;-79
2023/09/26 02:32:41;;;;;;;3.65;2.90;;;12.00;99.90;;;;;;5064370;28;20033;-79
2023/09/26 02:35:12;;;;;;;3.40;2.40;;;12.00;99.90;;;;;;5060480;28;20473;-79
2023/09/26 02:37:38;;;;;;;3.88;2.40;;;12.00;99.90;;;;;;5061752;28;20032;-79
2023/09/26 02:40:12;;;;;;;3.15;2.42;;;12.00;99.90;;;;;;5061059;28;20029;-79
2023/09/26 02:42:40;;;;;;;3.58;3.10;;;12.00;99.90;;;;;;5055612;28;20306;-79
2023/09/26 02:45:07;;;;;;;2.83;2.53;;;12.00;99.90;;;;;;5063564;28;20032;-79
2023/09/26 02:47:33;;;;;;;2.90;2.60;;;11.90;99.90;;;;;;5061847;28;20052;-79
2023/09/26 02:49:58;;;;;;;9.10;3.47;;;11.90;99.90;;;;;;5055517;28;20123;-79
2023/09/26 02:52:25;;;;;;;3.47;3.17;;;11.90;99.90;;;;;;5060136;28;20116;-79
2023/09/26 02:54:51;;;;;;;2.95;2.65;;;11.90;99.90;;;;;;5062565;28;20189;-80
2023/09/26 02:57:19;;;;;;;5.22;2.80;;;11.80;99.90;;;;;;5064129;28;20066;-79
2023/09/26 02:59:45;;;;;;;4.35;2.38;;;11.80;99.90;;;;;;5061923;28;20071;-79
2023/09/26 03:02:11;;;;;;;3.40;2.65;;;11.80;99.90;;;;;;5062192;28;20077;-79
2023/09/26 03:04:37;;;;;;;2.83;2.50;;;11.80;99.90;;;;;;5064733;28;20024;-80
2023/09/26 03:07:03;;;;;;;3.63;2.47;;;11.70;99.90;;;;;;5065808;28;20032;-80
2023/09/26 03:09:32;;;;;;;2.63;2.20;;;11.70;99.90;;;;;;5067274;28;20048;-79
2023/09/26 03:11:57;;;;;;;4.30;2.47;;;11.70;99.90;;;;;;5062512;28;20024;-79
2023/09/26 03:14:23;;;;;;;3.63;2.80;;;11.70;99.90;;;;;;5063159;28;20033;-79
2023/09/26 03:16:49;;;;;;;4.80;2.40;;;11.70;99.90;;;;;;5064458;28;20082;-79
2023/09/26 03:19:17;;;;;;;3.42;2.35;;;11.70;99.90;;;;;;5063231;28;20186;-79
2023/09/26 03:21:43;;;;;;;3.35;2.13;;;11.70;99.90;;;;;;5064443;28;20473;-80
2023/09/26 03:24:09;;;;;;;3.22;2.40;;;11.70;99.90;;;;;;5064701;28;20028;-80
2023/09/26 03:26:35;;;;;;;3.03;2.65;;;11.70;99.90;;;;;;5064130;28;20032;-80
2023/09/26 03:29:00;;;;;;;4.68;2.78;;;11.70;99.90;;;;;;5063583;28;20102;-79
2023/09/26 03:31:26;;;;;;;3.55;2.38;;;11.70;99.90;;;;;;5063842;28;20029;-79
2023/09/26 03:33:52;;;;;;;3.30;2.53;;;11.60;99.90;;;;;;5067867;28;20047;-79
2023/09/26 03:36:18;;;;;;;2.38;2.17;;;11.60;99.90;;;;;;5066594;28;20116;-80
2023/09/26 03:38:43;;;;;;;2.40;2.20;;;11.60;99.90;;;;;;5065130;28;20021;-79
2023/09/26 03:41:09;;;;;;;4.05;2.40;;;11.60;99.90;;;;;;5066461;28;20353;-79
2023/09/26 03:43:35;;;;;;;3.70;2.63;;;11.50;99.90;;;;;;5065929;28;20029;-79
2023/09/26 03:46:03;;;;;;;3.03;2.55;;;11.50;99.90;;;;;;5066379;28;20077;-79
2023/09/26 03:48:29;;;;;;;3.50;2.47;;;11.50;99.90;;;;;;5060684;28;20120;-79
2023/09/26 03:50:55;;;;;;;5.22;2.50;;;11.50;99.90;;;;;;5064975;28;20029;-80
2023/09/26 03:53:21;;;;;;;4.00;2.40;;;11.50;99.90;;;;;;5066519;28;20365;-80
2023/09/26 03:55:54;;;;;;;3.10;2.40;;;11.50;99.90;;;;;;5063330;28;20040;-79
2023/09/26 03:58:21;;;;;;;5.07;2.50;;;11.50;99.90;;;;;;5066170;28;20037;-79
2023/09/26 04:00:46;;;;;;;5.28;2.53;;;11.40;99.90;;;;;;5065050;28;20429;-80
2023/09/26 04:03:12;;;;;;;2.90;2.60;;;11.40;99.90;;;;;;5063795;28;20068;-80
2023/09/26 04:05:38;;;;;;;5.47;2.50;;;11.40;99.90;;;;;;5063708;28;20033;-79
2023/09/26 04:08:04;;;;;;;2.97;2.75;;;11.40;99.90;;;;;;5062700;28;20029;-80
2023/09/26 04:10:30;;;;;;;2.58;2.38;;;11.40;99.90;;;;;;5063006;28;20479;-79
2023/09/26 04:12:55;;;;;;;2.85;2.10;;;11.40;99.90;;;;;;5062619;28;20020;-80
2023/09/26 04:15:21;;;;;;;4.32;2.55;;;11.30;99.90;;;;;;5065083;28;20107;-79
2023/09/26 04:17:46;;;;;;;2.88;2.35;;;11.40;99.90;;;;;;5064427;28;20024;-79
2023/09/26 04:20:12;;;;;;;9.95;3.00;;;11.40;99.90;;;;;;5065009;28;20033;-80
2023/09/26 04:22:38;;;;;;;2.75;2.40;;;11.40;99.90;;;;;;5062963;28;20028;-79
2023/09/26 04:25:05;;;;;;;3.08;2.35;;;11.40;99.90;;;;;;5066276;28;20123;-79
2023/09/26 04:27:31;;;;;;;3.65;2.38;;;11.40;99.90;;;;;;5066009;28;20087;-79
2023/09/26 04:29:56;;;;;;;5.00;2.53;;;11.40;99.90;;;;;;5063952;28;20378;-80
2023/09/26 04:32:22;;;;;;;3.80;2.60;;;11.40;99.90;;;;;;5066440;28;20481;-80
2023/09/26 04:34:48;;;;;;;4.00;3.20;;;11.40;99.90;;;;;;5063737;28;20103;-79
2023/09/26 04:37:13;;;;;;;3.55;2.85;;;11.30;99.90;;;;;;5065005;28;20489;-79
2023/09/26 04:39:42;;;;;;;5.20;3.28;;;11.30;99.90;;;;;;5064563;28;20512;-80
2023/09/26 04:42:08;;;;;;;4.32;2.78;;;11.30;99.90;;;;;;5059706;28;20028;-80
2023/09/26 04:44:33;;;;;;;2.80;2.60;;;11.30;99.90;;;;;;5062208;28;20082;-79
2023/09/26 04:47:02;;;;;;;3.05;2.50;;;11.30;99.90;;;;;;5062303;28;20025;-80
2023/09/26 04:49:27;;;;;;;2.60;2.38;;;11.30;99.90;;;;;;5062183;28;20040;-79
2023/09/26 04:51:53;;;;;;;2.45;2.25;;;11.30;99.90;;;;;;5061749;28;20066;-79
2023/09/26 04:54:19;;;;;;;3.58;2.58;;;11.30;99.90;;;;;;5063067;28;20035;-80
2023/09/26 04:56:45;;;;;;;3.35;2.67;;;11.30;99.90;;;;;;5050876;28;20243;-80
2023/09/26 04:59:11;;;;;;;3.03;2.63;;;11.30;99.90;;;;;;5064566;28;20488;-79
2023/09/26 05:01:36;;;;;;;2.72;2.50;;;11.30;99.90;;;;;;5063037;28;20020;-79
2023/09/26 05:04:03;;;;;;;2.65;2.45;;;11.30;99.90;;;;;;5064290;28;20129;-80
2023/09/26 05:06:29;;;;;;;7.43;2.63;;;11.30;99.90;;;;;;5064678;28;20029;-80
2023/09/26 05:08:55;;;;;;;6.85;3.45;;;11.30;99.90;;;;;;5063640;28;20039;-79
2023/09/26 05:11:21;;;;;;;4.07;3.05;;;11.30;99.90;;;;;;5066103;28;20078;-79
2023/09/26 05:13:47;;;;;;;5.50;3.20;;;11.30;99.90;;;;;;5063126;28;20445;-80
2023/09/26 05:16:14;;;;;;;3.72;2.75;;;11.30;99.90;;;;;;5061882;28;20025;-79
2023/09/26 05:18:41;;;;;;;2.97;2.67;;;11.30;99.90;;;;;;5063265;28;20032;-80
2023/09/26 05:21:08;;;;;;;3.55;2.65;;;11.30;99.90;;;;;;5059379;28;20439;-79
2023/09/26 05:23:34;;;;;;;7.88;3.50;;;11.30;99.90;;;;;;5062900;28;20061;-80
2023/09/26 05:26:08;;;;;;;3.40;2.95;;;11.20;99.90;;;;;;5060652;28;20082;-79
2023/09/26 05:28:33;;;;;;;3.08;2.83;;;11.20;99.90;;;;;;5060426;28;20028;-79
2023/09/26 05:30:59;;;;;;;4.22;2.70;;;11.20;99.90;;;;;;5062834;28;20262;-79
2023/09/26 05:33:25;;;;;;;3.13;2.83;;;11.20;99.90;;;;;;5062177;28;20028;-79
2023/09/26 05:35:53;;;;;;;6.38;3.25;;;11.20;99.90;;;;;;5064245;28;20021;-79
2023/09/26 05:38:19;;;;;;;3.05;2.40;;;11.20;99.90;;;;;;5063948;28;20111;-80
2023/09/26 05:40:45;;;;;;;3.05;2.40;;;11.30;99.90;;;;;;5064225;28;20036;-80
2023/09/26 05:43:10;;;;;;;3.47;2.83;;;11.20;99.90;;;;;;5064115;28;20397;-79
2023/09/26 05:45:36;;;;;;;7.30;2.90;;;11.30;99.90;;;;;;5064791;28;20111;-80
2023/09/26 05:48:02;;;;;;;6.70;2.83;;;11.30;99.90;;;;;;5063531;28;20025;-79
2023/09/26 05:50:28;;;;;;;3.95;2.50;;;11.40;99.90;;;;;;5064044;28;20032;-80
2023/09/26 05:52:53;;;;;;;3.35;2.10;;;11.40;99.90;;;;;;5062786;28;20472;-80
2023/09/26 05:55:19;;;;;;;2.90;2.42;;;11.40;99.90;;;;;;5063949;28;20028;-80
2023/09/26 05:57:44;;;;;;;2.83;2.38;;;11.40;99.90;;;;;;5062642;28;20103;-80
2023/09/26 06:00:12;;;;;;;4.55;3.38;;;11.50;99.90;;;;;;5061213;28;20028;-79
2023/09/26 06:02:41;;;;;;;4.55;2.60;;;11.50;99.90;;;;;;5063450;28;20066;-80
2023/09/26 06:05:07;;;;;;;3.47;3.17;;;11.50;99.90;;;;;;5062434;28;20060;-80
2023/09/26 06:07:33;;;;;;;2.83;2.60;;;11.60;99.90;;;;;;5060897;28;20117;-80
2023/09/26 06:09:59;;;;;;;6.40;3.05;;;11.60;99.90;;;;;;5061130;28;20325;-79
2023/09/26 06:12:26;;;;;;;4.40;2.83;;;11.70;99.90;;;;;;5064264;28;20278;-80
2023/09/26 06:14:51;;;;;;;3.92;2.80;;;11.70;99.90;;;;;;5056793;28;20020;-80
2023/09/26 06:17:17;;;;;;;5.20;3.47;;;11.70;99.90;;;;;;5063459;28;20073;-79
2023/09/26 06:19:47;;;;;;;9.52;3.50;;;11.80;99.90;;;;;;5062892;28;20106;-80
2023/09/26 06:22:13;;;;;;;5.55;3.67;;;11.80;99.90;;;;;;5061257;28;20532;-80
2023/09/26 06:24:42;;;;;;;4.63;2.90;;;11.80;99.90;;;;;;5063802;28;20104;-80
2023/09/26 06:27:08;;;;;;;7.00;3.00;;;11.90;99.90;;;;;;5064976;28;20052;-80
2023/09/26 06:29:41;;;;;;;4.28;3.05;;;12.00;99.90;;;;;;5063870;28;20075;-80
2023/09/26 06:32:07;;;;;;;11.95;3.58;;;12.00;99.90;;;;;;5063661;28;20024;-80
2023/09/26 06:34:34;;;;;;;5.75;3.15;;;12.10;99.90;;;;;;5062150;28;20074;-80
2023/09/26 06:37:00;;;;;;;4.38;3.30;;;12.10;99.90;;;;;;5061056;28;20053;-80
2023/09/26 06:39:25;;;;;;;5.47;3.67;;;12.20;99.90;;;;;;5063394;28;20056;-80
2023/09/26 06:41:51;;;;;;;7.32;3.67;;;12.30;99.90;;;;;;5064459;28;20033;-80
2023/09/26 06:44:16;;;;;;;5.82;3.30;;;12.40;99.90;;;;;;5067022;28;20036;-80
2023/09/26 06:46:42;;;;;;;3.60;2.90;;;12.40;99.90;;;;;;5066815;28;20028;-80
2023/09/26 06:49:08;;;;;;;4.47;2.75;;;12.50;99.90;;;;;;5067349;28;20064;-80
2023/09/26 06:51:33;;;;;;;4.45;3.13;;;12.60;99.90;;;;;;5066819;28;20538;-80
2023/09/26 06:54:00;;;;;;;3.08;2.47;;;12.70;99.90;;;;;;5067480;28;20012;-80
2023/09/26 06:56:26;;;;;;;2.60;2.40;;;12.70;99.90;;;;;;5067255;28;20031;-80
2023/09/26 06:58:51;;;;;;;5.78;2.55;;;12.80;99.90;;;;;;5067440;28;20036;-80
2023/09/26 07:01:18;;;;;;;4.03;3.22;;;12.90;99.90;;;;;;5067843;28;20035;-80
2023/09/26 07:03:44;;;;;;;6.32;3.50;;;13.00;99.90;;;;;;5068740;28;20493;-80
2023/09/26 07:06:12;;;;;;;5.07;3.47;;;13.10;99.90;;;;;;5068452;28;20249;-80
2023/09/26 07:08:38;;;;;;;7.00;3.53;;;13.20;99.90;;;;;;5069330;28;20036;-80
2023/09/26 07:11:04;;;;;;;4.60;3.80;;;13.30;99.90;;;;;;5067091;28;20037;-80
2023/09/26 07:13:34;;;;;;;9.52;3.50;;;13.40;99.90;;;;;;5065440;28;20459;-80
2023/09/26 07:16:03;;;;;;;4.30;3.53;;;13.50;99.90;;;;;;5061734;28;20063;-80
2023/09/26 07:18:33;;;;;;;4.95;3.58;;;13.50;99.90;;;;;;5065484;28;20037;-80
2023/09/26 07:21:05;;;;;;;5.40;3.50;;;13.60;99.90;;;;;;5064445;28;20028;-80
2023/09/26 07:23:32;;;;;;;9.50;3.90;;;13.70;99.90;;;;;;5063848;28;20079;-80
2023/09/26 07:26:06;;;;;;;5.55;3.00;;;13.80;99.90;;;;;;5065057;28;20032;-80
2023/09/26 07:28:32;;;;;;;4.10;3.42;;;13.90;99.90;;;;;;5064719;28;20052;-80
2023/09/26 07:30:58;;;;;;;4.10;3.03;;;13.90;99.90;;;;;;5067463;28;20033;-80
2023/09/26 07:33:23;;;;;;;4.93;4.18;;;14.00;99.90;;;;;;5065880;28;20385;-80
2023/09/26 07:35:52;;;;;;;5.65;4.18;;;14.10;99.90;;;;;;5064274;28;20035;-80
2023/09/26 07:38:18;;;;;;;5.18;4.13;;;14.20;99.90;;;;;;5067239;28;20058;-80
2023/09/26 07:40:43;;;;;;;6.68;4.53;;;14.30;99.90;;;;;;5064707;28;20444;-80
2023/09/26 07:43:09;;;;;;;6.65;4.50;;;14.50;99.90;;;;;;5065877;28;20132;-80
2023/09/26 07:45:38;;;;;;;8.82;4.57;;;14.50;99.90;;;;;;5066429;28;20025;-80
2023/09/26 07:48:04;;;;;;;4.93;4.13;;;14.60;99.90;;;;;;5064689;28;20533;-80
2023/09/26 07:50:30;;;;;;;5.05;4.10;;;14.60;99.90;;;;;;5065360;28;20127;-80
2023/09/26 07:52:55;;;;;;;7.15;4.10;;;14.70;99.90;;;;;;5065000;28;20025;-80
2023/09/26 07:55:21;;;;;;;6.70;4.65;;;14.80;99.90;;;;;;5065342;28;20042;-80
2023/09/26 07:57:47;;;;;;;9.35;4.68;;;14.80;99.90;;;;;;5063110;28;20021;-80
2023/09/26 08:00:13;;;;;;;5.75;3.97;;;14.90;99.90;;;;;;5063698;28;20424;-80
2023/09/26 08:02:42;;;;;;;5.88;3.72;;;15.00;99.90;;;;;;5064084;28;20021;-80
2023/09/26 08:05:08;;;;;;;5.10;3.92;;;15.10;99.90;;;;;;5059477;28;20117;-80
2023/09/26 08:07:34;;;;;;;3.90;3.55;;;15.10;99.90;;;;;;5065669;28;20024;-80
2023/09/26 08:10:02;;;;;;;5.03;4.10;;;15.20;99.90;;;;;;5064235;28;20032;-80
2023/09/26 08:12:28;;;;;;;8.10;3.90;;;15.20;99.90;;;;;;5065823;28;20517;-80
2023/09/26 08:14:54;;;;;;;5.90;4.05;;;15.30;99.90;;;;;;5065199;28;20031;-80
2023/09/26 08:17:19;;;;;;;10.60;4.13;;;15.40;99.90;;;;;;5064987;28;20142;-80
2023/09/26 08:19:46;;;;;;;4.78;3.45;;;15.40;99.90;;;;;;5065141;28;20052;-80
2023/09/26 08:22:12;;;;;;;8.25;4.20;;;15.40;99.90;;;;;;5063052;28;20032;-81
2023/09/26 08:24:39;;;;;;;6.40;3.97;;;15.50;99.90;;;;;;5063525;28;20024;-81
2023/09/26 08:27:06;;;;;;;4.65;3.67;;;15.50;99.90;;;;;;5062989;28;20031;-80
2023/09/26 08:29:32;;;;;;;7.47;4.20;;;15.50;99.90;;;;;;5063497;28;20045;-80
2023/09/26 08:31:58;;;;;;;6.60;3.92;;;15.50;99.90;;;;;;5061992;28;20028;-80
2023/09/26 08:34:24;;;;;;;8.70;4.13;;;15.50;99.90;;;;;;5063642;28;20387;-80
2023/09/26 08:36:50;;;;;;;14.25;4.72;;;15.60;99.90;;;;;;5063550;28;20384;-80
2023/09/26 08:39:15;;;;;;;10.15;4.75;;;15.60;99.90;;;;;;5062276;28;20077;-81
2023/09/26 08:41:45;;;;;;;6.75;4.18;;;15.60;99.90;;;;;;5063450;28;20049;-80
2023/09/26 08:44:12;;;;;;;8.27;4.22;;;15.70;99.90;;;;;;5064636;28;20029;-81
2023/09/26 08:46:42;;;;;;;5.10;4.30;;;15.80;99.90;;;;;;5065571;28;20023;-80
2023/09/26 08:49:09;;;;;;;19.25;5.20;;;15.80;99.90;;;;;;5064586;28;20073;-81
2023/09/26 08:51:35;;;;;;;15.88;6.10;;;15.80;99.90;;;;;;5064633;28;20024;-81
2023/09/26 08:54:01;;;;;;;17.58;5.40;;;15.90;99.90;;;;;;5063443;28;20035;-81
2023/09/26 08:56:26;;;;;;;9.18;5.20;;;16.00;99.90;;;;;;5062255;28;20036;-81
2023/09/26 08:58:55;;;;;;;9.07;4.80;;;16.00;99.90;;;;;;5062310;28;20033;-80
2023/09/26 09:01:20;;;;;;;12.10;5.30;;;16.10;99.90;;;;;;5062321;28;20544;-80
2023/09/26 09:03:46;;;;;;;21.42;6.38;;;16.10;99.90;;;;;;5062544;28;20033;-81
2023/09/26 09:06:12;;;;;;;14.23;5.70;;;16.20;99.90;;;;;;5063683;28;20032;-81
2023/09/26 09:08:38;;;;;;;20.25;7.03;;;16.30;99.90;;;;;;5064118;28;20039;-80
2023/09/26 09:11:04;;;;;;;14.30;6.55;;;16.40;99.90;;;;;;5064061;28;20103;-80
2023/09/26 09:13:34;;;;;;;12.80;6.78;;;16.50;99.90;;;;;;5062807;28;20476;-80
2023/09/26 09:16:09;;;;;;;13.65;5.18;;;16.50;99.90;;;;;;5062558;28;20043;-80
2023/09/26 09:18:53;;;;;;;8.45;4.95;;;16.70;99.90;;;;;;5064540;28;20024;-81
2023/09/26 09:21:24;;;;;;;7.65;5.80;;;16.70;99.90;;;;;;5065111;28;20048;-81
2023/09/26 09:23:54;;;;;;;11.98;5.50;;;16.90;99.90;;;;;;5064006;28;20029;-81
2023/09/26 09:26:24;;;;;;;9.05;4.80;;;17.00;99.90;;;;;;5065100;28;20032;-81
2023/09/26 09:28:59;;;;;;;5.85;4.20;;;17.10;99.90;;;;;;5063600;28;20391;-80
2023/09/26 09:31:27;;;;;;;13.57;5.60;;;17.20;99.90;;;;;;5062281;28;20041;-80
2023/09/26 09:33:55;;;;;;;6.30;4.45;;;17.30;99.90;;;;;;5062630;28;20119;-80
2023/09/26 09:36:21;;;;;;;9.02;4.82;;;17.40;99.90;;;;;;5062869;28;20032;-81
2023/09/26 09:38:47;;;;;;;3.85;3.42;;;17.50;99.90;;;;;;5063448;28;20052;-81
2023/09/26 09:41:13;;;;;;;4.72;3.10;;;17.60;99.90;;;;;;5063276;28;20449;-81
2023/09/26 09:43:38;;;;;;;5.03;3.33;;;17.70;99.90;;;;;;5064465;28;20021;-80
2023/09/26 09:46:08;;;;;;;6.90;3.42;;;17.80;99.90;;;;;;5064155;28;20021;-80
2023/09/26 09:48:44;;;;;;;4.75;2.60;;;17.90;99.90;;;;;;5064407;28;20485;-80
2023/09/26 09:51:14;;;;;;;3.72;2.78;;;18.00;99.90;;;;;;5061709;28;20136;-81
2023/09/26 09:53:54;;;;;;;7.47;3.05;;;18.20;99.90;;;;;;5057438;28;20032;-81
2023/09/26 09:56:24;;;;;;;4.50;2.80;;;18.40;99.90;;;;;;5064884;28;20032;-81
2023/09/26 09:59:00;;;;;;;7.00;2.67;;;18.60;99.90;;;;;;5063960;28;20028;-81
2023/09/26 10:01:26;;;;;;;3.55;2.20;;;18.80;99.90;;;;;;5058449;28;20127;-81
2023/09/26 10:03:52;;;;;;;2.63;2.40;;;18.90;99.90;;;;;;5062965;28;20025;-80
2023/09/26 10:06:18;;;;;;;6.15;2.90;;;19.00;99.90;;;;;;5063812;28;20025;-80
2023/09/26 10:08:47;;;;;;;4.45;2.58;;;19.10;99.90;;;;;;5061184;28;20048;-81
2023/09/26 10:11:13;;;;;;;4.05;2.60;;;19.20;99.90;;;;;;5060682;28;20029;-81
2023/09/26 10:13:40;;;;;;;3.70;2.13;;;19.30;99.90;;;;;;5062567;28;20407;-81
2023/09/26 10:16:19;;;;;;;5.25;2.17;;;19.30;99.90;;;;;;5056558;28;20028;-80
2023/09/26 10:18:47;;;;;;;5.68;2.25;;;19.40;99.90;;;;;;5066373;28;20021;-81
2023/09/26 10:21:42;;;;;;;5.22;2.67;;;19.40;99.90;;;;;;5065789;28;20029;-81
2023/09/26 10:24:08;;;;;;;3.40;2.55;;;19.50;99.90;;;;;;5058811;28;20037;-78
2023/09/26 10:26:37;;;;;;;6.72;3.30;;;19.60;99.90;;;;;;5067296;28;20073;-78
2023/09/26 10:29:21;;;;;;;4.82;2.75;;;19.60;99.90;;;;;;5068228;28;20059;-78
2023/09/26 10:31:56;;;;;;;5.57;3.17;;;19.70;99.90;;;;;;5066460;28;20028;-78
2023/09/26 10:34:27;;;;;;;5.55;3.63;;;19.70;99.90;;;;;;5068322;28;20025;-79
2023/09/26 10:36:56;;;;;;;4.55;3.10;;;19.80;99.90;;;;;;5067062;28;20032;-79
2023/09/26 10:39:37;;;;;;;5.45;3.10;;;19.90;99.90;;;;;;5067324;28;20032;-78
2023/09/26 10:42:22;;;;;;;7.13;3.13;;;20.00;99.90;;;;;;5058652;28;20025;-78
2023/09/26 10:44:51;;;;;;;5.53;3.15;;;20.10;99.90;;;;;;5066603;28;20541;-79
2023/09/26 10:47:19;;;;;;;10.05;2.65;;;20.20;99.90;;;;;;5066388;28;20078;-79
2023/09/26 10:49:44;;;;;;;7.28;2.78;;;20.30;99.90;;;;;;5065480;28;20040;-79
2023/09/26 10:52:12;;;;;;;6.70;3.15;;;20.30;99.90;;;;;;5064336;28;20029;-79
2023/09/26 10:54:39;;;;;;;6.85;3.40;;;20.30;99.90;;;;;;5065536;28;20162;-79
2023/09/26 10:57:06;;;;;;;3.00;2.70;;;20.30;99.90;;;;;;5066036;28;20063;-80
2023/09/26 10:59:32;;;;;;;5.43;3.30;;;20.30;99.90;;;;;;5062666;28;20502;-79
2023/09/26 11:01:59;;;;;;;11.35;3.67;;;20.30;99.90;;;;;;5067568;28;20028;-78
2023/09/26 11:04:31;;;;;;;10.38;2.90;;;20.40;99.90;;;;;;5067345;28;20237;-78
2023/09/26 11:07:00;;;;;;;8.30;2.70;;;20.40;99.90;;;;;;5066615;28;20029;-79
2023/09/26 11:09:26;;;;;;;7.55;3.65;;;20.40;99.90;;;;;;5068267;28;20090;-79
2023/09/26 11:11:55;;;;;;;2.97;2.25;;;20.50;99.90;;;;;;5066696;28;20438;-78
2023/09/26 11:14:22;;;;;;;4.20;2.88;;;20.50;99.90;;;;;;5061898;28;20039;-79
2023/09/26 11:16:48;;;;;;;10.10;3.60;;;20.60;99.90;;;;;;5067291;28;20392;-77
2023/09/26 11:19:13;;;;;;;3.65;2.78;;;20.70;99.90;;;;;;5059528;28;20029;-79
2023/09/26 11:21:40;;;;;;;6.00;2.53;;;20.70;99.90;;;;;;5066972;28;20484;-78
2023/09/26 11:24:27;;;;;;;5.53;2.70;;;20.80;99.90;;;;;;5061308;28;20021;-79
2023/09/26 11:26:57;;;;;;;5.50;3.05;;;21.00;99.90;;;;;;5064388;28;20114;-79
2023/09/26 11:29:24;;;;;;;8.10;2.83;;;21.10;99.90;;;;;;5064015;28;20328;-78
2023/09/26 11:31:51;;;;;;;9.13;2.80;;;21.30;99.90;;;;;;5064008;28;20484;-78
2023/09/26 11:34:18;;;;;;;5.03;2.78;;;21.30;99.90;;;;;;5063266;28;20043;-77
2023/09/26 11:36:44;;;;;;;3.25;2.50;;;21.40;99.90;;;;;;5063510;28;20032;-78
2023/09/26 11:39:23;;;;;;;5.75;2.25;;;21.40;99.90;;;;;;5065729;28;20036;-79
2023/09/26 11:42:10;;;;;;;9.32;2.80;;;21.40;99.90;;;;;;5066385;28;20624;-78
2023/09/26 11:44:36;;;;;;;8.23;2.53;;;21.50;99.90;;;;;;5064794;28;20036;-79
2023/09/26 11:47:04;;;;;;;3.75;2.25;;;21.50;99.90;;;;;;5067168;28;20045;-79
2023/09/26 11:49:31;;;;;;;11.63;3.15;;;21.50;99.90;;;;;;5066588;28;20484;-79
2023/09/26 11:51:56;;;;;;;6.50;2.67;;;21.50;99.90;;;;;;5065656;28;20029;-80
2023/09/26 11:54:22;;;;;;;4.03;2.53;;;21.50;99.90;;;;;;5066502;28;20036;-78
2023/09/26 11:56:48;;;;;;;3.65;2.40;;;21.70;99.90;;;;;;5065017;28;20111;-79
2023/09/26 11:59:15;;;;;;;8.90;2.80;;;21.80;99.90;;;;;;5066059;28;20089;-79
2023/09/26 12:01:41;;;;;;;4.28;2.85;;;21.90;99.90;;;;;;5065486;28;20029;-79
2023/09/26 12:04:10;;;;;;;3.38;2.50;;;22.00;99.90;;;;;;5066051;28;20040;-78
2023/09/26 12:06:36;;;;;;;8.75;2.65;;;21.90;99.90;;;;;;5065522;28;20032;-78
2023/09/26 12:09:05;;;;;;;6.32;3.25;;;21.90;99.90;;;;;;5065003;28;20073;-79
2023/09/26 12:11:30;;;;;;;4.22;2.25;;;22.00;99.90;;;;;;5065757;28;20032;-79
2023/09/26 12:13:56;;;;;;;3.63;2.25;;;22.00;99.90;;;;;;5059988;28;20405;-79
2023/09/26 12:16:22;;;;;;;3.95;2.03;;;21.90;99.90;;;;;;5059000;28;20112;-79
2023/09/26 12:18:49;;;;;;;4.05;2.28;;;22.00;99.90;;;;;;5062517;28;20032;-79
2023/09/26 12:21:16;;;;;;;10.18;2.40;;;22.10;99.90;;;;;;5063453;28;20029;-79
2023/09/26 12:23:41;;;;;;;3.60;2.28;;;22.10;99.90;;;;;;5060281;28;20029;-77
2023/09/26 12:26:07;;;;;;;6.28;2.42;;;22.10;99.90;;;;;;5063788;28;20028;-77
2023/09/26 12:28:35;;;;;;;2.40;1.98;;;22.20;99.90;;;;;;5063812;28;20623;-79
2023/09/26 12:31:00;;;;;;;5.90;2.35;;;22.30;99.90;;;;;;5065723;28;20043;-79
2023/09/26 12:33:26;;;;;;;4.03;1.98;;;22.40;99.90;;;;;;5065097;28;20025;-79
2023/09/26 12:35:51;;;;;;;5.20;2.05;;;22.40;99.90;;;;;;5064589;28;20047;-79
2023/09/26 12:38:17;;;;;;;2.15;1.92;;;22.60;99.90;;;;;;5065453;28;20027;-79
2023/09/26 12:40:43;;;;;;;5.60;2.35;;;22.70;99.90;;;;;;5064415;28;20028;-79
2023/09/26 12:43:09;;;;;;;4.03;2.53;;;22.80;99.90;;;;;;5063041;28;20017;-79
2023/09/26 12:45:37;;;;;;;4.95;1.83;;;22.80;99.90;;;;;;5065522;28;20029;-79